Time;durP1;ratioP1;P1;durP2;ratioP2;P2;SDS_P1;SDS_P2;PMS_P1;PMS_P2;Temp;Humidity;BMP_temperature;BMP_pressure;BME280_temperature;BME280_humidity;BME280_pressure;Samples;Min_cycle;Max_cycle;Signal;HPM_P1;HPM_P2
2022/06/11 00:01:24;;;;;;;7.85;3.15;;;17.60;99.90;;;;;;4976692;28;20045;-59
2022/06/11 00:03:54;;;;;;;6.50;3.08;;;17.50;99.90;;;;;;4989121;28;20038;-58
2022/06/11 00:06:21;;;;;;;6.70;3.22;;;17.50;99.90;;;;;;4987699;28;20026;-59
2022/06/11 00:08:47;;;;;;;6.50;3.00;;;17.60;99.90;;;;;;4988030;28;20022;-58
2022/06/11 00:11:13;;;;;;;7.72;3.10;;;17.70;99.90;;;;;;4987964;28;20082;-58
2022/06/11 00:13:41;;;;;;;7.70;2.72;;;17.60;99.90;;;;;;4990978;28;20034;-58
2022/06/11 00:16:07;;;;;;;10.93;3.53;;;17.50;99.90;;;;;;4989497;28;20057;-58
2022/06/11 00:18:35;;;;;;;8.15;3.20;;;17.20;99.90;;;;;;4988526;28;20158;-57
2022/06/11 00:21:01;;;;;;;10.13;3.20;;;17.40;99.90;;;;;;4988064;28;20506;-58
2022/06/11 00:23:27;;;;;;;6.57;2.90;;;17.40;99.90;;;;;;4987910;28;20092;-58
2022/06/11 00:25:53;;;;;;;8.40;2.92;;;17.50;99.90;;;;;;4988889;28;20027;-58
2022/06/11 00:28:19;;;;;;;11.07;3.40;;;17.70;99.90;;;;;;4991355;28;20053;-58
2022/06/11 00:30:46;;;;;;;8.77;3.17;;;17.60;99.90;;;;;;4988387;28;20482;-58
2022/06/11 00:33:11;;;;;;;8.18;3.13;;;17.40;99.90;;;;;;4987906;28;20101;-58
2022/06/11 00:35:38;;;;;;;7.22;3.15;;;17.30;99.90;;;;;;4987615;28;20558;-59
2022/06/11 00:38:05;;;;;;;11.07;3.30;;;17.20;99.90;;;;;;4991886;28;20084;-58
2022/06/11 00:40:34;;;;;;;7.63;3.17;;;17.30;99.90;;;;;;4976798;28;20462;-58
2022/06/11 00:43:00;;;;;;;6.55;3.08;;;17.20;99.90;;;;;;4988798;28;20038;-58
2022/06/11 00:45:32;;;;;;;10.07;3.45;;;17.10;99.90;;;;;;4980539;28;20626;-57
2022/06/11 00:48:21;;;;;;;7.15;3.28;;;17.20;99.90;;;;;;4985060;28;20027;-58
2022/06/11 00:51:03;;;;;;;8.13;2.90;;;16.90;99.90;;;;;;4974554;28;20045;-58
2022/06/11 00:53:42;;;;;;;7.10;3.20;;;17.00;99.90;;;;;;4984303;28;20023;-58
2022/06/11 00:56:23;;;;;;;6.22;3.13;;;16.90;99.90;;;;;;4985120;28;20058;-57
2022/06/11 00:58:51;;;;;;;7.20;3.10;;;16.90;99.90;;;;;;4983148;28;20109;-58
2022/06/11 01:01:20;;;;;;;8.20;2.95;;;17.10;99.90;;;;;;4980056;28;20085;-58
2022/06/11 01:03:47;;;;;;;8.43;3.05;;;16.90;99.90;;;;;;4982082;28;20494;-58
2022/06/11 01:06:26;;;;;;;7.63;3.10;;;17.00;99.90;;;;;;4984494;28;20019;-58
2022/06/11 01:08:59;;;;;;;9.10;2.90;;;17.10;99.90;;;;;;4984122;28;20054;-58
2022/06/11 01:11:37;;;;;;;8.32;3.00;;;16.90;99.90;;;;;;4984755;28;20027;-58
2022/06/11 01:14:30;;;;;;;6.93;3.00;;;17.10;99.90;;;;;;4985077;28;20033;-58
2022/06/11 01:17:02;;;;;;;7.60;2.92;;;17.10;99.90;;;;;;4984877;28;20041;-58
2022/06/11 01:19:51;;;;;;;11.75;2.97;;;16.90;99.90;;;;;;4979991;28;20044;-58
2022/06/11 01:22:44;;;;;;;8.32;3.00;;;16.80;99.90;;;;;;4994020;28;20022;-58
2022/06/11 01:25:15;;;;;;;9.57;3.10;;;16.90;99.90;;;;;;4993185;28;20402;-58
2022/06/11 01:28:20;;;;;;;6.00;2.72;;;16.70;99.90;;;;;;4980983;28;20023;-58
2022/06/11 01:30:50;;;;;;;6.80;2.70;;;16.40;99.90;;;;;;4918954;29;20063;-59
2022/06/11 01:34:08;;;;;;;4.32;2.40;;;16.10;99.90;;;;;;4921356;29;20452;-58
2022/06/11 01:36:41;;;;;;;3.63;2.30;;;17.30;99.90;;;;;;4878221;29;20047;-57
2022/06/11 01:39:37;;;;;;;4.23;2.20;;;18.40;99.90;;;;;;4874635;29;20081;-58
2022/06/11 01:42:20;;;;;;;5.85;2.00;;;18.70;99.90;;;;;;4874097;29;20132;-59
2022/06/11 01:44:57;;;;;;;5.28;2.45;;;18.70;99.90;;;;;;4874334;29;20040;-59
2022/06/11 01:47:23;;;;;;;5.35;2.20;;;18.60;99.90;;;;;;4877236;29;20040;-58
2022/06/11 01:49:49;;;;;;;4.40;2.08;;;18.70;99.90;;;;;;4872372;29;20156;-58
2022/06/11 01:52:43;;;;;;;4.72;2.00;;;18.80;99.90;;;;;;4869062;29;20108;-58
2022/06/11 01:55:32;;;;;;;5.30;2.15;;;18.70;99.90;;;;;;4867674;29;20045;-59
2022/06/11 01:58:27;;;;;;;7.72;2.58;;;17.50;99.90;;;;;;4868939;29;20380;-59
2022/06/11 02:01:20;;;;;;;6.72;2.60;;;16.80;99.90;;;;;;4867978;29;20049;-59
2022/06/11 02:04:11;;;;;;;5.90;2.38;;;16.80;99.90;;;;;;4867713;29;20049;-59
2022/06/11 02:07:00;;;;;;;7.03;2.65;;;16.80;99.90;;;;;;4868641;29;20138;-60
2022/06/11 02:09:57;;;;;;;5.85;2.88;;;16.30;99.90;;;;;;4950390;28;20035;-59
2022/06/11 02:12:37;;;;;;;7.60;2.72;;;16.10;99.90;;;;;;4982622;28;20042;-59
2022/06/11 02:15:46;;;;;;;8.77;2.90;;;16.10;99.90;;;;;;4983800;28;20023;-59
2022/06/11 02:18:18;;;;;;;8.23;3.20;;;16.10;99.90;;;;;;4975252;28;20046;-60
2022/06/11 02:20:54;;;;;;;9.68;3.22;;;15.90;99.90;;;;;;4982911;28;20088;-60
2022/06/11 02:23:25;;;;;;;8.98;3.15;;;15.90;99.90;;;;;;4983082;28;20108;-61
2022/06/11 02:25:55;;;;;;;10.57;3.28;;;16.50;99.90;;;;;;4982127;28;20022;-60
2022/06/11 02:28:26;;;;;;;6.63;2.95;;;16.90;99.90;;;;;;4978847;28;20407;-61
2022/06/11 02:30:53;;;;;;;11.73;3.72;;;16.90;99.90;;;;;;4979574;28;20033;-61
2022/06/11 02:33:21;;;;;;;8.45;2.88;;;16.40;99.90;;;;;;4983079;28;20040;-61
2022/06/11 02:36:14;;;;;;;9.10;3.10;;;16.40;99.90;;;;;;4982867;28;20101;-61
2022/06/11 02:38:40;;;;;;;9.45;2.90;;;16.30;99.90;;;;;;4982521;28;20039;-61
2022/06/11 02:41:16;;;;;;;9.63;3.38;;;16.20;99.90;;;;;;4982965;28;20054;-61
2022/06/11 02:43:43;;;;;;;8.32;2.92;;;16.00;99.90;;;;;;4980637;28;20465;-61
2022/06/11 02:48:53;;;;;;;7.25;3.03;;;15.70;99.90;;;;;;4990562;28;20506;-61
2022/06/11 02:51:21;;;;;;;6.50;2.97;;;15.80;99.90;;;;;;4989561;28;20474;-61
2022/06/11 02:53:47;;;;;;;10.65;3.17;;;15.90;99.90;;;;;;4987996;28;20031;-60
2022/06/11 02:56:13;;;;;;;6.65;3.20;;;15.70;99.90;;;;;;4982351;28;20050;-60
2022/06/11 02:58:40;;;;;;;7.13;3.25;;;15.40;99.90;;;;;;4980008;28;20045;-61
2022/06/11 03:01:06;;;;;;;8.68;3.63;;;15.10;99.90;;;;;;4978081;28;20033;-60
2022/06/11 03:03:32;;;;;;;7.78;3.05;;;15.00;99.90;;;;;;4981191;28;20387;-60
2022/06/11 03:06:01;;;;;;;9.40;3.70;;;15.00;99.90;;;;;;4982415;28;20089;-60
2022/06/11 03:08:27;;;;;;;9.32;3.70;;;14.90;99.90;;;;;;4982093;28;20557;-60
2022/06/11 03:10:56;;;;;;;6.35;3.15;;;14.80;99.90;;;;;;4980945;28;20406;-60
2022/06/11 03:13:24;;;;;;;7.93;3.50;;;14.60;99.90;;;;;;4978446;28;20073;-61
2022/06/11 03:15:50;;;;;;;7.78;3.47;;;14.60;99.90;;;;;;4979300;28;20035;-60
2022/06/11 03:18:16;;;;;;;10.07;3.95;;;14.40;99.90;;;;;;4981988;28;20089;-60
2022/06/11 03:20:43;;;;;;;8.48;3.75;;;14.40;99.90;;;;;;4982174;28;20035;-61
2022/06/11 03:23:09;;;;;;;7.05;3.50;;;14.30;99.90;;;;;;4982015;28;20053;-60
2022/06/11 03:25:36;;;;;;;7.07;3.90;;;14.20;99.90;;;;;;4978943;28;20037;-60
2022/06/11 03:28:10;;;;;;;7.40;3.90;;;14.20;99.90;;;;;;4977689;28;20251;-61
2022/06/11 03:30:36;;;;;;;7.82;4.20;;;14.20;99.90;;;;;;4988964;28;20069;-61
2022/06/11 03:33:02;;;;;;;7.63;4.30;;;14.20;99.90;;;;;;4987888;28;20045;-61
2022/06/11 03:35:27;;;;;;;8.93;4.43;;;14.10;99.90;;;;;;4988396;28;20034;-60
2022/06/11 03:37:53;;;;;;;5.10;3.42;;;14.10;99.90;;;;;;4989649;28;20110;-60
2022/06/11 03:40:19;;;;;;;9.52;4.07;;;14.10;99.90;;;;;;4991777;28;20214;-61
2022/06/11 03:42:45;;;;;;;5.60;3.90;;;14.10;99.90;;;;;;4988862;28;20037;-60
2022/06/11 03:45:11;;;;;;;7.03;3.60;;;13.90;99.90;;;;;;4988173;28;20030;-61
2022/06/11 03:47:38;;;;;;;7.95;4.00;;;13.80;99.90;;;;;;4987745;28;20398;-60
2022/06/11 03:50:17;;;;;;;8.18;4.10;;;13.90;99.90;;;;;;4988282;28;20030;-61
2022/06/11 03:52:43;;;;;;;7.22;3.58;;;13.90;99.90;;;;;;4993113;28;20133;-60
2022/06/11 03:55:09;;;;;;;4.68;3.40;;;13.80;99.90;;;;;;4976883;28;20142;-61
2022/06/11 03:57:34;;;;;;;7.75;3.70;;;13.70;99.90;;;;;;4980198;28;20030;-60
2022/06/11 04:00:07;;;;;;;7.43;3.88;;;13.60;99.90;;;;;;4981296;28;20030;-60
2022/06/11 04:02:33;;;;;;;11.07;4.35;;;13.50;99.90;;;;;;4981161;28;20105;-60
2022/06/11 04:04:58;;;;;;;8.50;4.25;;;13.50;99.90;;;;;;4981619;28;20057;-60
2022/06/11 04:07:24;;;;;;;8.85;4.20;;;13.50;99.90;;;;;;4976643;28;20116;-60
2022/06/11 04:09:50;;;;;;;7.63;4.10;;;13.50;99.90;;;;;;4978256;28;20023;-60
2022/06/11 04:12:16;;;;;;;9.18;4.13;;;13.50;99.90;;;;;;4981221;28;20364;-60
2022/06/11 04:14:45;;;;;;;8.68;4.30;;;13.80;99.90;;;;;;4981698;28;20028;-60
2022/06/11 04:17:29;;;;;;;5.90;4.15;;;13.70;99.90;;;;;;4981038;28;20033;-60
2022/06/11 04:19:56;;;;;;;7.35;4.43;;;13.70;99.90;;;;;;4980667;28;20041;-60
2022/06/11 04:22:21;;;;;;;8.25;4.63;;;13.70;99.90;;;;;;4976516;28;20482;-60
2022/06/11 04:24:48;;;;;;;8.32;4.65;;;13.50;99.90;;;;;;4978270;28;20041;-60
2022/06/11 04:27:16;;;;;;;7.03;4.47;;;13.50;99.90;;;;;;4984171;28;20394;-60
2022/06/11 04:29:48;;;;;;;7.15;4.03;;;13.50;99.90;;;;;;4988532;28;20486;-60
2022/06/11 04:32:16;;;;;;;7.90;4.57;;;13.50;99.90;;;;;;4990303;28;20022;-60
2022/06/11 04:34:44;;;;;;;9.43;4.78;;;13.50;99.90;;;;;;4979029;28;20506;-60
2022/06/11 04:37:14;;;;;;;7.95;4.43;;;13.60;99.90;;;;;;4976536;28;20074;-60
2022/06/11 04:39:45;;;;;;;7.15;4.50;;;13.60;99.90;;;;;;4977393;28;20109;-60
2022/06/11 04:42:12;;;;;;;8.02;3.90;;;13.70;99.90;;;;;;4980958;28;20027;-60
2022/06/11 04:44:42;;;;;;;6.35;4.50;;;13.70;99.90;;;;;;4981668;28;20205;-60
2022/06/11 04:47:10;;;;;;;7.00;4.40;;;13.80;99.90;;;;;;4980901;28;20493;-60
2022/06/11 04:49:37;;;;;;;8.05;4.68;;;13.70;99.90;;;;;;4978078;28;20026;-60
2022/06/11 04:52:04;;;;;;;7.57;4.15;;;13.80;99.90;;;;;;4976639;28;20063;-60
2022/06/11 04:54:30;;;;;;;6.68;4.20;;;13.70;99.90;;;;;;4987137;28;20402;-60
2022/06/11 04:56:56;;;;;;;7.20;4.30;;;13.70;99.90;;;;;;4988178;28;20030;-60
2022/06/11 04:59:22;;;;;;;8.80;4.15;;;13.70;99.90;;;;;;4987958;28;20371;-60
2022/06/11 05:01:48;;;;;;;17.55;4.68;;;13.80;99.90;;;;;;4988753;28;20034;-60
2022/06/11 05:04:15;;;;;;;7.00;4.32;;;13.90;99.90;;;;;;4990653;28;20089;-59
2022/06/11 05:06:43;;;;;;;8.25;4.40;;;13.90;99.90;;;;;;4988356;28;20483;-60
2022/06/11 05:09:14;;;;;;;6.60;3.72;;;14.00;99.90;;;;;;4987342;28;20050;-60
2022/06/11 05:11:41;;;;;;;7.22;4.40;;;14.20;99.90;;;;;;4987777;28;20030;-61
2022/06/11 05:14:07;;;;;;;8.02;4.45;;;14.40;99.90;;;;;;4989391;28;20121;-60
2022/06/11 05:16:34;;;;;;;8.27;4.38;;;14.40;99.90;;;;;;4977473;28;20133;-61
2022/06/11 05:19:01;;;;;;;7.28;4.38;;;14.50;99.90;;;;;;4976540;28;20040;-60
2022/06/11 05:21:26;;;;;;;7.43;3.22;;;15.10;99.90;;;;;;4980591;28;20027;-62
2022/06/11 05:23:53;;;;;;;6.97;3.53;;;15.60;99.90;;;;;;4980894;28;20038;-61
2022/06/11 05:26:32;;;;;;;4.88;3.20;;;16.50;99.90;;;;;;4980418;28;20402;-61
2022/06/11 05:28:58;;;;;;;5.57;3.38;;;17.80;99.90;;;;;;4979980;28;20402;-61
2022/06/11 05:31:24;;;;;;;5.55;2.72;;;17.90;99.90;;;;;;4976321;28;20034;-61
2022/06/11 05:33:49;;;;;;;6.68;3.20;;;18.50;99.90;;;;;;4980171;28;20423;-61
2022/06/11 05:36:16;;;;;;;5.47;2.70;;;20.30;99.90;;;;;;4990614;28;20042;-61
2022/06/11 05:38:42;;;;;;;5.20;2.65;;;21.60;99.90;;;;;;4984006;28;20089;-61
2022/06/11 05:41:08;;;;;;;5.55;2.70;;;22.10;99.90;;;;;;4983973;28;20035;-62
2022/06/11 05:43:34;;;;;;;5.65;2.53;;;22.50;99.90;;;;;;4980730;28;20109;-62
2022/06/11 05:46:09;;;;;;;5.57;2.60;;;23.50;99.90;;;;;;4979504;28;20118;-62
2022/06/11 05:48:43;;;;;;;5.95;2.47;;;24.00;99.90;;;;;;4991301;28;20038;-62
2022/06/11 05:51:13;;;;;;;4.18;2.33;;;24.40;99.90;;;;;;4985924;28;20085;-62
2022/06/11 05:53:39;;;;;;;5.13;2.17;;;25.70;99.90;;;;;;4983753;28;20109;-62
2022/06/11 05:56:06;;;;;;;4.50;2.17;;;26.40;99.90;;;;;;4983851;28;20141;-62
2022/06/11 05:58:54;;;;;;;4.85;2.25;;;26.50;99.90;;;;;;4980085;28;20462;-62
2022/06/11 06:01:26;;;;;;;5.28;2.22;;;27.60;99.90;;;;;;4978930;28;20070;-62
2022/06/11 06:03:51;;;;;;;4.47;1.98;;;28.20;99.90;;;;;;4980758;28;20093;-62
2022/06/11 06:06:17;;;;;;;5.35;2.05;;;28.50;99.90;;;;;;4983457;28;20038;-62
2022/06/11 06:08:44;;;;;;;4.63;2.10;;;28.70;99.40;;;;;;4983379;28;20113;-62
2022/06/11 06:11:10;;;;;;;3.90;2.10;;;26.10;99.90;;;;;;4983406;28;20026;-62
2022/06/11 06:13:48;;;;;;;4.53;2.15;;;27.40;99.90;;;;;;4980135;28;20092;-62
2022/06/11 06:16:23;;;;;;;5.40;2.08;;;28.50;99.90;;;;;;4978779;28;20041;-62
2022/06/11 06:18:50;;;;;;;4.43;2.28;;;29.00;99.30;;;;;;4980708;28;20102;-61
2022/06/11 06:21:19;;;;;;;5.35;2.38;;;29.50;97.90;;;;;;4983513;28;20089;-61
2022/06/11 06:23:45;;;;;;;4.50;1.98;;;30.20;96.90;;;;;;4983215;28;20041;-62
2022/06/11 06:26:10;;;;;;;4.13;1.83;;;29.90;97.50;;;;;;4983201;28;20026;-61
2022/06/11 06:28:36;;;;;;;4.55;2.10;;;30.10;97.40;;;;;;4980284;28;20018;-62
2022/06/11 06:31:05;;;;;;;5.82;2.00;;;31.10;95.90;;;;;;4979201;28;20070;-62
2022/06/11 06:33:31;;;;;;;5.30;2.10;;;31.10;94.90;;;;;;4989307;28;20026;-62
2022/06/11 06:36:02;;;;;;;5.43;1.90;;;32.10;94.40;;;;;;4989644;28;20034;-62
2022/06/11 06:38:28;;;;;;;3.92;1.77;;;33.00;92.90;;;;;;4989549;28;20045;-62
2022/06/11 06:40:54;;;;;;;4.00;1.98;;;33.10;92.50;;;;;;4990684;28;20039;-62
2022/06/11 06:43:20;;;;;;;5.22;2.17;;;32.90;91.90;;;;;;4992620;28;20026;-61
2022/06/11 06:45:47;;;;;;;4.63;2.00;;;33.10;91.00;;;;;;4989496;28;20414;-62
2022/06/11 06:48:13;;;;;;;5.90;2.03;;;33.20;91.90;;;;;;4989517;28;20053;-62
2022/06/11 06:50:39;;;;;;;6.50;2.10;;;33.10;91.70;;;;;;4989711;28;20034;-61
2022/06/11 06:53:05;;;;;;;5.65;2.30;;;33.30;90.80;;;;;;4989140;28;20037;-61
2022/06/11 06:55:31;;;;;;;4.70;1.80;;;33.00;91.40;;;;;;4992892;28;20050;-61
2022/06/11 06:57:57;;;;;;;5.82;2.22;;;34.10;90.30;;;;;;4990577;28;20030;-62
2022/06/11 07:00:23;;;;;;;4.43;1.92;;;33.50;90.40;;;;;;4989457;28;20458;-62
2022/06/11 07:02:49;;;;;;;6.28;1.88;;;33.20;90.30;;;;;;4982720;28;20050;-62
2022/06/11 07:05:16;;;;;;;6.53;1.90;;;35.10;87.60;;;;;;4982490;28;20035;-62
2022/06/11 07:07:42;;;;;;;4.15;1.70;;;35.10;85.10;;;;;;4980399;28;20019;-62
2022/06/11 07:10:10;;;;;;;5.90;2.00;;;35.70;85.10;;;;;;4977388;28;20022;-62
2022/06/11 07:12:36;;;;;;;6.30;2.00;;;34.40;86.80;;;;;;4980989;28;20105;-62
2022/06/11 07:15:02;;;;;;;3.70;2.17;;;36.10;86.00;;;;;;4982113;28;20023;-62
2022/06/11 07:17:34;;;;;;;3.10;1.88;;;36.30;81.60;;;;;;4982559;28;20476;-62
2022/06/11 07:20:08;;;;;;;4.53;1.90;;;34.10;87.30;;;;;;4982062;28;20034;-62
2022/06/11 07:22:47;;;;;;;3.65;1.80;;;36.40;82.70;;;;;;4976543;28;20045;-62
2022/06/11 07:25:13;;;;;;;5.00;1.80;;;34.50;83.30;;;;;;4991154;28;20030;-62
2022/06/11 07:27:49;;;;;;;4.13;1.73;;;34.30;84.30;;;;;;4989768;28;20022;-62
2022/06/11 07:30:19;;;;;;;4.20;1.67;;;34.30;85.20;;;;;;4988452;28;20030;-61
2022/06/11 07:32:49;;;;;;;4.22;1.80;;;31.20;89.10;;;;;;4988472;28;20506;-62
2022/06/11 07:35:16;;;;;;;3.17;1.83;;;33.30;88.50;;;;;;4988387;28;20031;-62
2022/06/11 07:37:43;;;;;;;3.08;1.70;;;35.90;83.40;;;;;;4991368;28;20018;-62
2022/06/11 07:40:10;;;;;;;3.72;1.90;;;38.20;78.50;;;;;;4990278;28;20101;-62
2022/06/11 07:42:35;;;;;;;4.32;1.80;;;38.60;77.30;;;;;;4988783;28;20022;-62
2022/06/11 07:45:01;;;;;;;3.60;1.92;;;40.60;74.90;;;;;;4988766;28;20037;-62
2022/06/11 07:50:12;;;;;;;4.40;1.90;;;39.00;74.50;;;;;;4981761;28;20044;-62
2022/06/11 07:52:39;;;;;;;3.60;1.63;;;37.40;75.50;;;;;;4978602;28;20037;-62
2022/06/11 07:55:06;;;;;;;2.70;1.70;;;37.80;75.80;;;;;;4976745;28;20129;-62
2022/06/11 07:57:31;;;;;;;4.50;1.80;;;37.60;77.60;;;;;;4980914;28;20026;-62
2022/06/11 07:59:57;;;;;;;2.55;1.67;;;38.40;75.80;;;;;;4981394;28;20081;-62
2022/06/11 08:02:24;;;;;;;3.55;1.60;;;38.20;75.70;;;;;;4981327;28;20404;-62
2022/06/11 08:04:50;;;;;;;2.55;1.50;;;38.50;73.80;;;;;;4979925;28;20022;-62
2022/06/11 08:07:16;;;;;;;2.53;1.60;;;39.90;72.20;;;;;;4977094;28;20033;-62
2022/06/11 08:09:41;;;;;;;2.80;1.70;;;40.60;71.80;;;;;;4979190;28;20031;-62
2022/06/11 08:12:07;;;;;;;3.70;1.80;;;39.40;71.40;;;;;;4981365;28;20026;-62
2022/06/11 08:14:33;;;;;;;3.67;1.58;;;39.60;73.50;;;;;;4978789;28;20034;-62
2022/06/11 08:16:59;;;;;;;3.15;1.50;;;42.60;68.20;;;;;;4988616;28;20471;-63
2022/06/11 08:19:24;;;;;;;2.80;1.50;;;40.90;69.60;;;;;;4991727;28;20147;-62
2022/06/11 08:21:50;;;;;;;3.90;2.03;;;41.20;68.70;;;;;;4988516;28;20399;-62
2022/06/11 08:24:16;;;;;;;3.17;1.63;;;41.70;69.30;;;;;;4987855;28;20089;-63
2022/06/11 08:26:41;;;;;;;3.42;1.60;;;42.40;67.60;;;;;;4986913;28;20476;-63
2022/06/11 08:29:07;;;;;;;5.03;1.60;;;42.50;66.90;;;;;;4982231;28;20022;-62
2022/06/11 08:31:33;;;;;;;4.10;1.70;;;42.90;67.60;;;;;;4977649;28;20070;-62
2022/06/11 08:33:58;;;;;;;3.92;1.70;;;41.50;67.90;;;;;;4976814;28;20030;-62
2022/06/11 08:36:24;;;;;;;3.80;1.70;;;39.80;69.40;;;;;;4988525;28;20121;-63
2022/06/11 08:38:50;;;;;;;4.22;1.85;;;40.40;67.80;;;;;;4987198;28;20030;-62
2022/06/11 08:41:20;;;;;;;5.28;1.58;;;41.50;66.10;;;;;;4987539;28;20043;-62
2022/06/11 08:44:08;;;;;;;2.25;1.30;;;38.10;70.00;;;;;;4989664;28;20057;-63
2022/06/11 08:46:36;;;;;;;3.83;1.60;;;40.60;69.20;;;;;;4976870;28;20487;-62
2022/06/11 08:49:05;;;;;;;3.30;1.70;;;42.50;65.00;;;;;;4988695;28;20383;-62
2022/06/11 08:51:37;;;;;;;2.60;1.58;;;43.60;64.10;;;;;;4986777;28;20487;-62
2022/06/11 08:54:14;;;;;;;3.83;1.60;;;43.00;64.70;;;;;;4987175;28;20041;-62
2022/06/11 08:56:57;;;;;;;3.47;1.70;;;37.80;70.00;;;;;;4987978;28;20026;-62
2022/06/11 08:59:41;;;;;;;3.92;1.48;;;36.70;71.40;;;;;;4987234;28;20081;-62
2022/06/11 09:02:41;;;;;;;3.17;2.13;;;35.50;73.60;;;;;;4987312;28;20038;-62
2022/06/11 09:05:16;;;;;;;3.78;1.70;;;36.70;71.70;;;;;;4990657;28;20045;-62
2022/06/11 09:08:00;;;;;;;2.30;1.42;;;37.90;70.90;;;;;;4979354;28;20532;-62
2022/06/11 09:10:49;;;;;;;4.45;1.77;;;39.80;69.10;;;;;;4980143;28;20084;-62
2022/06/11 09:13:43;;;;;;;2.55;1.30;;;38.30;69.50;;;;;;4994175;28;20061;-62
2022/06/11 09:16:27;;;;;;;5.60;1.90;;;38.30;69.20;;;;;;4993323;28;20030;-62
2022/06/11 09:19:06;;;;;;;2.65;1.52;;;38.50;68.70;;;;;;4981018;28;20097;-62
2022/06/11 09:21:55;;;;;;;3.75;1.50;;;41.20;65.10;;;;;;4990496;28;20411;-62
2022/06/11 09:24:40;;;;;;;4.05;1.50;;;40.50;66.60;;;;;;4990779;28;20026;-62
2022/06/11 09:27:32;;;;;;;3.03;1.55;;;36.90;70.40;;;;;;4990828;28;20037;-63
2022/06/11 09:30:16;;;;;;;4.78;1.65;;;38.60;69.10;;;;;;4990843;28;20442;-62
2022/06/11 09:32:49;;;;;;;3.55;1.40;;;38.00;68.10;;;;;;4990909;28;20053;-62
2022/06/11 09:35:24;;;;;;;2.30;1.40;;;39.00;70.80;;;;;;4991010;28;20026;-62
2022/06/11 09:38:14;;;;;;;3.10;1.60;;;37.50;69.80;;;;;;4992594;28;20038;-63
2022/06/11 09:40:49;;;;;;;3.38;1.30;;;37.10;69.20;;;;;;4979614;28;20042;-62
2022/06/11 09:43:21;;;;;;;2.88;1.23;;;39.40;70.30;;;;;;4994486;28;20483;-62
2022/06/11 09:45:57;;;;;;;3.03;1.30;;;35.60;69.10;;;;;;4981285;28;20026;-62
2022/06/11 09:48:34;;;;;;;2.78;1.40;;;36.60;72.40;;;;;;4983818;28;20031;-62
2022/06/11 09:51:19;;;;;;;2.83;1.20;;;33.70;73.70;;;;;;4983452;28;20085;-62
2022/06/11 09:54:08;;;;;;;5.43;1.60;;;34.80;73.80;;;;;;4983943;28;20513;-62
2022/06/11 09:56:45;;;;;;;3.72;1.30;;;34.20;76.20;;;;;;4984286;28;20050;-62
2022/06/11 09:59:29;;;;;;;2.80;1.30;;;35.00;73.20;;;;;;4983772;28;20442;-62
2022/06/11 10:02:09;;;;;;;2.95;1.30;;;33.20;73.80;;;;;;4983389;28;20161;-62
2022/06/11 10:04:40;;;;;;;2.92;1.20;;;31.80;77.20;;;;;;4978917;28;20031;-61
2022/06/11 10:07:13;;;;;;;3.42;1.67;;;31.80;76.00;;;;;;4992165;28;20105;-62
2022/06/11 10:09:47;;;;;;;2.83;1.30;;;31.50;76.80;;;;;;4980118;28;20540;-62
2022/06/11 10:12:18;;;;;;;4.45;1.50;;;31.90;77.40;;;;;;4983592;28;20030;-62
2022/06/11 10:15:01;;;;;;;3.20;1.67;;;32.70;77.20;;;;;;4983343;28;20030;-62
2022/06/11 10:17:55;;;;;;;3.47;1.33;;;31.30;76.90;;;;;;4983256;28;20050;-62
2022/06/11 10:20:35;;;;;;;5.03;1.40;;;31.50;78.50;;;;;;4982879;28;20034;-62
2022/06/11 10:23:12;;;;;;;5.55;1.63;;;32.00;78.40;;;;;;4983219;28;20030;-62
2022/06/11 10:25:58;;;;;;;3.08;1.52;;;31.90;78.20;;;;;;4980544;28;20033;-62
2022/06/11 10:28:33;;;;;;;3.65;1.80;;;33.00;76.20;;;;;;4978835;28;20019;-62
2022/06/11 10:31:05;;;;;;;4.22;1.52;;;31.90;76.30;;;;;;4990776;28;20022;-62
2022/06/11 10:33:41;;;;;;;3.20;1.52;;;31.30;76.60;;;;;;4989035;28;20556;-62
2022/06/11 10:36:17;;;;;;;2.47;1.50;;;31.40;77.20;;;;;;4989493;28;20482;-62
2022/06/11 10:39:05;;;;;;;4.10;1.40;;;31.50;78.20;;;;;;4989245;28;20055;-63
2022/06/11 10:41:44;;;;;;;4.57;1.40;;;32.30;74.90;;;;;;4989936;28;20029;-63
2022/06/11 10:44:21;;;;;;;3.58;1.70;;;32.10;75.80;;;;;;4989582;28;20026;-62
2022/06/11 10:46:47;;;;;;;3.65;1.67;;;32.40;75.90;;;;;;4991540;28;20029;-62
2022/06/11 10:49:19;;;;;;;2.85;1.42;;;31.40;77.60;;;;;;4992174;28;20030;-63
2022/06/11 10:51:53;;;;;;;4.80;1.50;;;31.30;76.60;;;;;;4979185;28;20114;-62
2022/06/11 10:54:25;;;;;;;3.67;1.42;;;32.40;77.10;;;;;;4982727;28;20043;-62
2022/06/11 10:56:57;;;;;;;1.95;1.30;;;31.80;77.80;;;;;;4982536;28;20503;-62
2022/06/11 10:59:38;;;;;;;2.95;1.35;;;32.40;78.10;;;;;;4989775;28;20452;-62
2022/06/11 11:02:18;;;;;;;3.30;1.48;;;32.10;77.40;;;;;;4982799;28;20034;-62
2022/06/11 11:05:07;;;;;;;2.75;1.27;;;31.30;77.60;;;;;;4980471;28;20033;-62
2022/06/11 11:07:54;;;;;;;3.33;1.30;;;33.20;78.00;;;;;;4978654;28;20034;-63
2022/06/11 11:10:36;;;;;;;4.22;1.48;;;33.90;75.10;;;;;;4992720;28;20046;-63
2022/06/11 11:13:24;;;;;;;5.90;2.38;;;32.60;74.20;;;;;;4990442;28;20024;-62
2022/06/11 11:16:22;;;;;;;3.08;1.38;;;31.60;77.60;;;;;;4976106;28;20030;-62
2022/06/11 11:19:19;;;;;;;3.53;1.42;;;32.20;77.20;;;;;;4978390;28;20074;-62
2022/06/11 11:21:56;;;;;;;3.30;1.30;;;32.80;75.10;;;;;;4978829;28;20533;-62
2022/06/11 11:24:32;;;;;;;2.75;1.40;;;31.60;75.20;;;;;;4982708;28;20026;-62
2022/06/11 11:27:00;;;;;;;4.20;1.30;;;31.80;75.20;;;;;;4981968;28;20162;-62
2022/06/11 11:29:31;;;;;;;4.35;1.50;;;32.60;73.70;;;;;;4982273;28;20038;-62
2022/06/11 11:32:04;;;;;;;4.10;1.20;;;32.90;73.80;;;;;;4981186;28;20026;-62
2022/06/11 11:34:42;;;;;;;2.28;1.30;;;31.70;73.80;;;;;;4977901;28;20602;-62
2022/06/11 11:37:14;;;;;;;2.42;1.25;;;31.20;72.30;;;;;;4990280;28;20014;-62
2022/06/11 11:39:53;;;;;;;4.30;1.33;;;31.30;75.80;;;;;;4978175;28;20698;-62
2022/06/11 11:42:41;;;;;;;3.22;1.40;;;30.00;78.10;;;;;;4981614;28;20353;-62
2022/06/11 11:45:27;;;;;;;1.92;1.30;;;30.60;76.20;;;;;;4981710;28;20085;-62
2022/06/11 11:48:00;;;;;;;2.75;1.48;;;30.80;75.60;;;;;;4981900;28;20022;-62
2022/06/11 11:50:38;;;;;;;2.15;1.20;;;30.80;74.60;;;;;;4981577;28;20035;-62
2022/06/11 11:53:11;;;;;;;3.65;1.60;;;31.10;76.70;;;;;;4982013;28;20177;-62
2022/06/11 11:55:40;;;;;;;;;;;31.50;77.40;;;;;;4978683;28;20038;-62
2022/06/11 11:58:21;;;;;;;3.15;1.23;;;31.50;79.50;;;;;;4977511;28;19906;-62
2022/06/11 12:01:04;;;;;;;2.58;1.25;;;31.70;79.50;;;;;;4978870;28;20049;-62
2022/06/11 12:03:43;;;;;;;6.10;1.52;;;31.70;76.40;;;;;;4988692;28;20023;-62
2022/06/11 12:06:13;;;;;;;2.70;1.13;;;31.50;75.80;;;;;;4988519;28;20030;-62
2022/06/11 12:08:49;;;;;;;2.47;1.52;;;31.10;76.40;;;;;;4988242;28;20142;-62
2022/06/11 12:11:23;;;;;;;3.33;1.17;;;30.70;74.40;;;;;;4988248;28;20093;-62
2022/06/11 12:13:52;;;;;;;4.43;1.40;;;30.50;75.80;;;;;;4989810;28;20077;-62
2022/06/11 12:16:21;;;;;;;2.55;1.38;;;31.10;74.70;;;;;;4991445;28;20026;-62
2022/06/11 12:18:51;;;;;;;2.00;1.10;;;31.00;78.30;;;;;;4989002;28;20026;-61
2022/06/11 12:21:21;;;;;;;4.43;1.30;;;31.30;77.60;;;;;;4982193;28;20395;-62
2022/06/11 12:23:49;;;;;;;3.40;1.25;;;31.70;76.10;;;;;;4980222;28;20360;-62
2022/06/11 12:26:25;;;;;;;3.03;1.25;;;31.80;72.20;;;;;;4987592;28;20499;-62
2022/06/11 12:29:14;;;;;;;2.85;1.30;;;31.40;73.40;;;;;;4989461;28;20098;-62
2022/06/11 12:31:41;;;;;;;1.95;1.20;;;31.10;73.70;;;;;;4977557;28;20109;-62
2022/06/11 12:34:15;;;;;;;4.93;1.35;;;31.00;73.00;;;;;;4989519;28;20057;-62
2022/06/11 12:36:51;;;;;;;2.20;1.20;;;31.00;72.60;;;;;;4977689;28;20102;-62
2022/06/11 12:39:46;;;;;;;2.50;1.08;;;31.10;72.20;;;;;;4980969;28;20050;-62
2022/06/11 12:42:34;;;;;;;1.98;1.20;;;30.80;73.30;;;;;;4983496;28;20039;-62
2022/06/11 12:45:36;;;;;;;3.53;1.30;;;30.80;74.60;;;;;;4985147;28;20037;-62
2022/06/11 12:48:25;;;;;;;1.58;1.10;;;31.30;72.50;;;;;;4985197;28;20030;-62
2022/06/11 12:51:16;;;;;;;2.78;1.00;;;30.80;72.40;;;;;;4984892;28;20022;-62
2022/06/11 12:54:32;;;;;;;2.10;1.13;;;31.00;72.50;;;;;;4984796;28;20114;-62
2022/06/11 12:57:19;;;;;;;2.17;1.13;;;31.00;76.70;;;;;;4912809;29;20060;-62
2022/06/11 13:00:12;;;;;;;3.17;1.20;;;31.00;75.10;;;;;;4916282;29;20088;-62
2022/06/11 13:02:56;;;;;;;2.75;1.42;;;31.00;74.40;;;;;;4913405;29;20040;-62
2022/06/11 13:05:35;;;;;;;2.30;1.10;;;30.80;71.30;;;;;;4912483;29;20040;-61
2022/06/11 13:08:27;;;;;;;5.93;1.20;;;30.50;73.70;;;;;;4912689;29;20048;-61
2022/06/11 13:11:13;;;;;;;2.72;1.10;;;30.60;70.80;;;;;;4913912;29;20032;-61
2022/06/11 13:13:54;;;;;;;3.22;1.20;;;30.60;72.20;;;;;;4915404;28;20115;-62
2022/06/11 13:16:31;;;;;;;2.88;1.08;;;30.80;69.80;;;;;;4915512;29;20104;-62
2022/06/11 13:19:07;;;;;;;2.40;1.25;;;30.80;69.40;;;;;;4913249;29;20046;-62
2022/06/11 13:21:50;;;;;;;2.70;1.10;;;30.50;70.20;;;;;;4915911;29;20064;-62
2022/06/11 13:24:42;;;;;;;6.18;2.33;;;30.90;75.20;;;;;;4916084;29;20037;-62